Time,TemperatureF,DewpointF,PressureIn,WindDirection,WindDirectionDegrees,WindSpeedMPH,WindSpeedGustMPH,Humidity,HourlyPrecipIn,Conditions,Clouds,dailyrainin,SoftwareType,DateUTC
2013-11-14 00:00:00,28.2,23.7,30.32,SW,236,0.0,0.0,83,0.00,,SKC,0.00,VWS V14.01,2013-11-14 05:00:00,
2013-11-14 00:04:00,28.2,23.7,30.33,SW,236,0.0,0.0,83,0.00,,SKC,0.00,VWS V14.01,2013-11-14 05:04:00,
2013-11-14 00:07:00,28.3,23.8,30.32,SW,236,0.0,0.0,83,0.00,,SKC,0.00,VWS V14.01,2013-11-14 05:07:00,
2013-11-14 00:08:00,28.3,23.8,30.32,SW,236,0.0,0.0,83,0.00,,SKC,0.00,VWS V14.01,2013-11-14 05:08:00,
2013-11-14 00:16:00,28.2,23.4,30.32,SW,236,0.0,0.0,82,0.00,,SKC,0.00,VWS V14.01,2013-11-14 05:16:00,
2013-11-14 00:20:00,28.2,23.7,30.32,SW,236,0.0,0.0,83,0.00,,SKC,0.00,VWS V14.01,2013-11-14 05:20:00,
2013-11-14 00:24:00,28.3,24.1,30.32,SW,236,0.0,0.0,84,0.00,,SKC,0.00,VWS V14.01,2013-11-14 05:24:00,
2013-11-14 00:28:00,28.3,24.9,30.32,SW,236,0.0,0.0,87,0.00,,SKC,0.00,VWS V14.01,2013-11-14 05:28:00,
2013-11-14 00:32:00,28.4,24.5,30.32,SW,236,0.0,0.0,85,0.00,,SKC,0.00,VWS V14.01,2013-11-14 05:32:00,
2013-11-14 00:36:00,28.3,23.8,30.32,SW,236,0.0,0.0,83,0.00,,SKC,0.00,VWS V14.01,2013-11-14 05:36:00,
2013-11-14 00:40:00,28.3,23.8,30.31,SW,236,0.0,0.0,83,0.00,,SKC,0.00,VWS V14.01,2013-11-14 05:40:00,
2013-11-14 00:44:00,28.3,23.8,30.31,SW,236,0.0,0.0,83,0.00,,SKC,0.00,VWS V14.01,2013-11-14 05:44:00,
2013-11-14 00:48:00,28.3,23.8,30.31,SW,236,0.0,0.0,83,0.00,,SKC,0.00,VWS V14.01,2013-11-14 05:48:00,
2013-11-14 00:52:00,28.3,23.8,30.31,SW,236,0.0,0.0,83,0.00,,SKC,0.00,VWS V14.01,2013-11-14 05:52:00,
2013-11-14 00:56:00,28.3,23.8,30.31,SW,236,0.0,0.0,83,0.00,,SKC,0.00,VWS V14.01,2013-11-14 05:56:00,
2013-11-14 01:00:00,28.3,24.1,30.31,SW,236,0.0,0.0,84,0.00,,SKC,0.00,VWS V14.01,2013-11-14 06:00:00,
2013-11-14 01:04:00,28.3,24.1,30.30,SW,236,0.0,0.0,84,0.00,,SKC,0.00,VWS V14.01,2013-11-14 06:04:00,
2013-11-14 01:07:00,28.3,24.1,30.30,SW,236,0.0,0.0,84,0.00,,SKC,0.00,VWS V14.01,2013-11-14 06:07:00,
2013-11-14 01:12:00,28.3,24.1,30.30,SW,236,0.0,0.0,84,0.00,,SKC,0.00,VWS V14.01,2013-11-14 06:12:00,
2013-11-14 01:16:00,28.4,24.2,30.30,SW,236,0.0,0.0,84,0.00,,SKC,0.00,VWS V14.01,2013-11-14 06:16:00,
2013-11-14 01:20:00,28.3,24.4,30.30,SW,236,0.0,0.0,85,0.00,,SKC,0.00,VWS V14.01,2013-11-14 06:20:00,
2013-11-14 01:24:00,28.3,24.1,30.30,SW,236,0.0,0.0,84,0.00,,SKC,0.00,VWS V14.01,2013-11-14 06:24:00,
2013-11-14 01:28:00,28.3,24.1,30.30,SW,236,0.0,0.0,84,0.00,,SKC,0.00,VWS V14.01,2013-11-14 06:28:00,
2013-11-14 01:32:00,28.2,24.0,30.30,SW,236,0.0,0.0,84,0.00,,SKC,0.00,VWS V14.01,2013-11-14 06:32:00,
2013-11-14 01:36:00,28.3,24.1,30.30,SW,236,0.0,0.0,84,0.00,,SKC,0.00,VWS V14.01,2013-11-14 06:36:00,
2013-11-14 01:37:00,28.3,24.1,30.30,SW,236,0.0,0.0,84,0.00,,SKC,0.00,VWS V14.01,2013-11-14 06:37:00,
2013-11-14 01:40:00,28.3,24.1,30.30,SW,236,0.0,0.0,84,0.00,,SKC,0.00,VWS V14.01,2013-11-14 06:40:00,
2013-11-14 01:44:00,28.3,24.1,30.30,SW,236,0.0,0.0,84,0.00,,SKC,0.00,VWS V14.01,2013-11-14 06:44:00,
2013-11-14 01:48:00,28.4,24.5,30.30,SW,236,0.0,0.0,85,0.00,,SKC,0.00,VWS V14.01,2013-11-14 06:48:00,
2013-11-14 01:56:00,28.5,24.6,30.30,SW,236,0.0,0.0,85,0.00,,SKC,0.00,VWS V14.01,2013-11-14 06:56:00,
2013-11-14 02:00:00,28.6,25.0,30.30,SW,236,0.0,0.0,86,0.00,,SKC,0.00,VWS V14.01,2013-11-14 07:00:00,
2013-11-14 02:04:00,28.5,24.6,30.30,SW,236,0.0,0.0,85,0.00,,SKC,0.00,VWS V14.01,2013-11-14 07:04:00,
2013-11-14 02:07:00,28.5,24.6,30.30,SW,236,0.0,0.0,85,0.00,,SKC,0.00,VWS V14.01,2013-11-14 07:07:00,
2013-11-14 02:08:00,28.5,24.6,30.30,SW,236,0.0,0.0,85,0.00,,SKC,0.00,VWS V14.01,2013-11-14 07:08:00,
2013-11-14 02:12:00,28.6,25.0,30.30,SW,236,0.0,0.0,86,0.00,,SKC,0.00,VWS V14.01,2013-11-14 07:12:00,
2013-11-14 02:20:00,28.8,25.1,30.30,SW,236,0.0,0.0,86,0.00,,SKC,0.00,VWS V14.01,2013-11-14 07:20:00,
2013-11-14 02:28:00,28.7,24.8,30.29,SW,236,0.0,0.0,85,0.00,,SKC,0.00,VWS V14.01,2013-11-14 07:28:00,
2013-11-14 02:32:00,28.7,24.8,30.29,SW,236,0.0,0.0,85,0.00,,SKC,0.00,VWS V14.01,2013-11-14 07:32:00,
2013-11-14 02:37:00,28.6,24.7,30.29,SSW,213,0.0,1.0,85,0.00,,SKC,0.00,VWS V14.01,2013-11-14 07:37:00,
2013-11-14 02:40:00,28.5,24.3,30.29,SSW,213,0.0,0.0,84,0.00,,SKC,0.00,VWS V14.01,2013-11-14 07:40:00,
2013-11-14 02:48:00,28.6,24.7,30.29,SSW,213,0.0,0.0,85,0.00,,SKC,0.00,VWS V14.01,2013-11-14 07:48:00,
2013-11-14 02:52:00,28.6,25.0,30.29,SSW,213,0.0,0.0,86,0.00,,SKC,0.00,VWS V14.01,2013-11-14 07:52:00,
2013-11-14 02:57:00,28.7,25.0,30.29,SSW,213,0.0,0.0,86,0.00,,SKC,0.00,VWS V14.01,2013-11-14 07:57:00,
2013-11-14 03:01:00,28.7,25.0,30.29,SSW,213,0.0,0.0,86,0.00,,SKC,0.00,VWS V14.01,2013-11-14 08:01:00,
2013-11-14 03:05:00,28.8,25.1,30.29,SSW,213,0.0,0.0,86,0.00,,SKC,0.00,VWS V14.01,2013-11-14 08:05:00,
2013-11-14 03:07:00,28.8,25.1,30.29,SSW,213,0.0,0.0,86,0.00,,SKC,0.00,VWS V14.01,2013-11-14 08:07:00,
2013-11-14 03:09:00,28.8,25.1,30.29,SSW,213,0.0,0.0,86,0.00,,SKC,0.00,VWS V14.01,2013-11-14 08:09:00,
2013-11-14 03:13:00,28.9,25.2,30.29,SSW,213,0.0,0.0,86,0.00,,SKC,0.00,VWS V14.01,2013-11-14 08:13:00,
2013-11-14 03:17:00,29.0,25.4,30.29,SSW,213,0.0,0.0,86,0.00,,SKC,0.00,VWS V14.01,2013-11-14 08:17:00,
2013-11-14 03:21:00,29.0,25.1,30.29,SSW,213,0.0,0.0,85,0.00,,SKC,0.00,VWS V14.01,2013-11-14 08:21:00,
2013-11-14 03:25:00,29.1,25.2,30.29,SSW,213,0.0,0.0,85,0.00,,SKC,0.00,VWS V14.01,2013-11-14 08:25:00,
2013-11-14 03:29:00,29.1,24.9,30.29,SSW,213,0.0,0.0,84,0.00,,SKC,0.00,VWS V14.01,2013-11-14 08:29:00,
2013-11-14 03:37:00,29.1,25.2,30.29,SSW,213,0.0,0.0,85,0.00,,SKC,0.00,VWS V14.01,2013-11-14 08:37:00,
2013-11-14 03:45:00,29.0,24.8,30.29,SSW,213,0.0,0.0,84,0.00,,SKC,0.00,VWS V14.01,2013-11-14 08:45:00,
2013-11-14 03:49:00,28.9,24.4,30.28,SSW,213,0.0,0.0,83,0.00,,SKC,0.00,VWS V14.01,2013-11-14 08:49:00,
2013-11-14 03:53:00,28.9,24.4,30.28,SSW,213,0.0,0.0,83,0.00,,SKC,0.00,VWS V14.01,2013-11-14 08:53:00,
2013-11-14 04:01:00,28.9,24.7,30.28,SSW,213,0.0,0.0,84,0.00,,SKC,0.00,VWS V14.01,2013-11-14 09:01:00,
2013-11-14 04:05:00,28.8,24.3,30.28,SSW,213,0.0,0.0,83,0.00,,SKC,0.00,VWS V14.01,2013-11-14 09:05:00,
2013-11-14 04:07:00,28.8,24.0,30.29,SSW,213,0.0,0.0,82,0.00,,SKC,0.00,VWS V14.01,2013-11-14 09:07:00,
2013-11-14 04:09:00,28.7,24.2,30.28,SSW,213,0.0,0.0,83,0.00,,SKC,0.00,VWS V14.01,2013-11-14 09:09:00,
2013-11-14 04:13:00,28.7,24.2,30.28,SSW,213,0.0,0.0,83,0.00,,SKC,0.00,VWS V14.01,2013-11-14 09:13:00,
2013-11-14 04:17:00,28.7,24.5,30.28,SSW,213,0.0,0.0,84,0.00,,SKC,0.00,VWS V14.01,2013-11-14 09:17:00,
2013-11-14 04:21:00,28.8,24.9,30.28,SSW,213,0.0,0.0,85,0.00,,SKC,0.00,VWS V14.01,2013-11-14 09:21:00,
2013-11-14 04:25:00,28.7,24.5,30.28,SSW,213,0.0,0.0,84,0.00,,SKC,0.00,VWS V14.01,2013-11-14 09:25:00,
2013-11-14 04:33:00,28.7,24.2,30.28,SSW,213,0.0,0.0,83,0.00,,SKC,0.00,VWS V14.01,2013-11-14 09:33:00,
2013-11-14 04:37:00,28.7,24.2,30.28,SSW,213,0.0,0.0,83,0.00,,SKC,0.00,VWS V14.01,2013-11-14 09:37:00,
2013-11-14 04:41:00,28.7,24.2,30.28,SSW,213,0.0,0.0,83,0.00,,SKC,0.00,VWS V14.01,2013-11-14 09:41:00,
2013-11-14 04:45:00,28.6,24.1,30.28,SSW,213,0.0,0.0,83,0.00,,SKC,0.00,VWS V14.01,2013-11-14 09:45:00,
2013-11-14 04:49:00,28.6,24.4,30.28,SSW,213,0.0,0.0,84,0.00,,SKC,0.00,VWS V14.01,2013-11-14 09:49:00,
2013-11-14 04:53:00,28.6,24.7,30.28,SSW,213,0.0,0.0,85,0.00,,SKC,0.00,VWS V14.01,2013-11-14 09:53:00,
2013-11-14 04:57:00,28.6,24.7,30.28,SSW,213,0.0,0.0,85,0.00,,SKC,0.00,VWS V14.01,2013-11-14 09:57:00,
2013-11-14 05:01:00,28.5,24.3,30.28,SSW,213,0.0,0.0,84,0.00,,SKC,0.00,VWS V14.01,2013-11-14 10:01:00,
2013-11-14 05:05:00,28.5,24.0,30.28,SSW,213,0.0,0.0,83,0.00,,SKC,0.00,VWS V14.01,2013-11-14 10:05:00,
2013-11-14 05:07:00,28.5,24.0,30.28,SSW,213,0.0,0.0,83,0.00,,SKC,0.00,VWS V14.01,2013-11-14 10:07:00,
2013-11-14 05:13:00,28.5,23.7,30.28,SSW,213,0.0,0.0,82,0.00,,SKC,0.00,VWS V14.01,2013-11-14 10:13:00,
2013-11-14 05:17:00,28.5,23.7,30.28,SSW,213,0.0,0.0,82,0.00,,SKC,0.00,VWS V14.01,2013-11-14 10:17:00,
2013-11-14 05:21:00,28.6,23.8,30.28,SSW,213,0.0,0.0,82,0.00,,SKC,0.00,VWS V14.01,2013-11-14 10:21:00,
2013-11-14 05:25:00,28.8,24.0,30.28,SSW,213,0.0,0.0,82,0.00,,SKC,0.00,VWS V14.01,2013-11-14 10:25:00,
2013-11-14 05:29:00,28.9,24.1,30.28,SSW,213,0.0,0.0,82,0.00,,SKC,0.00,VWS V14.01,2013-11-14 10:29:00,
2013-11-14 05:37:00,28.9,24.1,30.28,SSW,213,0.0,0.0,82,0.00,,SKC,0.00,VWS V14.01,2013-11-14 10:37:00,
2013-11-14 05:41:00,28.9,24.1,30.28,SSW,213,0.0,0.0,82,0.00,,SKC,0.00,VWS V14.01,2013-11-14 10:41:00,
2013-11-14 05:45:00,28.8,23.7,30.28,SSW,213,0.0,0.0,81,0.00,,SKC,0.00,VWS V14.01,2013-11-14 10:45:00,
2013-11-14 05:49:00,28.8,24.0,30.28,SSW,213,0.0,0.0,82,0.00,,SKC,0.00,VWS V14.01,2013-11-14 10:49:00,
2013-11-14 05:57:00,28.7,23.9,30.28,SSW,213,0.0,0.0,82,0.00,,SKC,0.00,VWS V14.01,2013-11-14 10:57:00,
2013-11-14 06:05:00,28.7,24.2,30.28,SSW,213,0.0,0.0,83,0.00,,SKC,0.00,VWS V14.01,2013-11-14 11:05:00,
2013-11-14 06:09:00,28.7,24.5,30.28,SSW,213,0.0,0.0,84,0.00,,SKC,0.00,VWS V14.01,2013-11-14 11:09:00,
2013-11-14 06:13:00,28.7,24.2,30.28,SSW,213,0.0,0.0,83,0.00,,SKC,0.00,VWS V14.01,2013-11-14 11:13:00,
2013-11-14 06:17:00,28.7,24.2,30.28,SSW,213,0.0,0.0,83,0.00,,SKC,0.00,VWS V14.01,2013-11-14 11:17:00,
2013-11-14 06:21:00,28.6,24.1,30.28,SSW,213,0.0,0.0,83,0.00,,SKC,0.00,VWS V14.01,2013-11-14 11:21:00,
2013-11-14 06:25:00,28.6,23.8,30.28,SSW,213,0.0,0.0,82,0.00,,SKC,0.00,VWS V14.01,2013-11-14 11:25:00,
2013-11-14 06:29:00,28.5,23.7,30.28,SSW,213,0.0,0.0,82,0.00,,SKC,0.00,VWS V14.01,2013-11-14 11:29:00,
2013-11-14 06:33:00,28.5,24.0,30.28,SSW,213,0.0,0.0,83,0.00,,SKC,0.00,VWS V14.01,2013-11-14 11:33:00,
2013-11-14 06:37:00,28.5,24.0,30.28,SSW,213,0.0,0.0,83,0.00,,SKC,0.00,VWS V14.01,2013-11-14 11:37:00,
2013-11-14 06:41:00,28.5,24.0,30.28,SSW,213,0.0,0.0,83,0.00,,SKC,0.00,VWS V14.01,2013-11-14 11:41:00,
2013-11-14 06:45:00,28.4,23.9,30.28,SSW,213,0.0,0.0,83,0.00,,SKC,0.00,VWS V14.01,2013-11-14 11:45:00,
2013-11-14 06:49:00,28.4,23.6,30.29,SSW,213,0.0,0.0,82,0.00,,SKC,0.00,VWS V14.01,2013-11-14 11:49:00,
2013-11-14 06:53:00,28.5,24.0,30.29,SSW,213,0.0,0.0,83,0.00,,SKC,0.00,VWS V14.01,2013-11-14 11:53:00,
2013-11-14 06:57:00,28.5,24.0,30.29,SSW,213,0.0,0.0,83,0.00,,SKC,0.00,VWS V14.01,2013-11-14 11:57:00,
2013-11-14 07:01:00,28.5,24.0,30.29,SSW,213,0.0,0.0,83,0.00,,SKC,0.00,VWS V14.01,2013-11-14 12:01:00,
2013-11-14 07:05:00,28.6,23.8,30.29,SSW,213,0.0,0.0,82,0.00,,SKC,0.00,VWS V14.01,2013-11-14 12:05:00,
2013-11-14 07:07:00,28.6,23.8,30.29,SSW,213,0.0,0.0,82,0.00,,SKC,0.00,VWS V14.01,2013-11-14 12:07:00,
2013-11-14 07:09:00,28.6,23.8,30.29,SSW,213,0.0,0.0,82,0.00,,SKC,0.00,VWS V14.01,2013-11-14 12:09:00,
2013-11-14 07:13:00,28.7,24.2,30.29,SSW,213,0.0,0.0,83,0.00,,SKC,0.00,VWS V14.01,2013-11-14 12:13:00,
2013-11-14 07:17:00,28.8,24.3,30.29,SSW,213,0.0,0.0,83,0.00,,SKC,0.00,VWS V14.01,2013-11-14 12:17:00,
2013-11-14 07:25:00,29.2,24.4,30.30,SSW,213,0.0,1.0,82,0.00,,SKC,0.00,VWS V14.01,2013-11-14 12:25:00,
2013-11-14 07:33:00,29.8,25.0,30.30,SSW,213,0.0,1.0,82,0.00,,SKC,0.00,VWS V14.01,2013-11-14 12:33:00,
2013-11-14 07:37:00,30.1,25.3,30.30,SSW,213,0.0,1.0,82,0.00,,SKC,0.00,VWS V14.01,2013-11-14 12:37:00,
2013-11-14 07:41:00,30.5,25.7,30.30,SSW,213,0.0,2.0,82,0.00,,SKC,0.00,VWS V14.01,2013-11-14 12:41:00,
2013-11-14 07:45:00,31.0,26.2,30.30,SSW,213,0.0,2.0,82,0.00,,SKC,0.00,VWS V14.01,2013-11-14 12:45:00,
2013-11-14 07:49:00,31.4,26.2,30.30,SSW,213,0.0,2.0,81,0.00,,SKC,0.00,VWS V14.01,2013-11-14 12:49:00,
2013-11-14 07:53:00,31.7,26.2,30.30,SSW,213,0.0,2.0,80,0.00,,SKC,0.00,VWS V14.01,2013-11-14 12:53:00,
2013-11-14 07:57:00,32.2,26.4,30.30,SSW,211,4.0,4.0,79,0.00,,SKC,0.00,VWS V14.01,2013-11-14 12:57:00,
2013-11-14 08:01:00,32.8,27.0,30.30,SW,223,0.0,4.0,79,0.00,,SKC,0.00,VWS V14.01,2013-11-14 13:01:00,
2013-11-14 08:05:00,33.2,27.1,30.30,SW,223,0.0,4.0,78,0.00,,SKC,0.00,VWS V14.01,2013-11-14 13:05:00,
2013-11-14 08:09:00,33.8,27.4,30.30,SW,223,0.0,0.0,77,0.00,,SKC,0.00,VWS V14.01,2013-11-14 13:09:00,
2013-11-14 08:13:00,34.3,27.5,30.31,SSW,208,0.0,4.0,76,0.00,,SKC,0.00,VWS V14.01,2013-11-14 13:13:00,
2013-11-14 08:17:00,34.8,28.0,30.31,SSW,207,0.0,4.0,76,0.00,,SKC,0.00,VWS V14.01,2013-11-14 13:17:00,
2013-11-14 08:21:00,35.4,28.3,30.31,SSW,208,0.0,4.0,75,0.00,,SKC,0.00,VWS V14.01,2013-11-14 13:21:00,
2013-11-14 08:29:00,36.6,28.8,30.31,SSW,207,0.0,4.0,73,0.00,,SKC,0.00,VWS V14.01,2013-11-14 13:29:00,
2013-11-14 08:33:00,37.1,28.9,30.31,SW,221,2.0,5.0,72,0.00,,SKC,0.00,VWS V14.01,2013-11-14 13:33:00,
2013-11-14 08:37:00,37.4,29.2,30.31,SSW,202,2.0,5.0,72,0.00,,SKC,0.00,VWS V14.01,2013-11-14 13:37:00,
2013-11-14 08:41:00,37.9,29.4,30.31,SW,218,2.0,4.0,71,0.00,,SKC,0.00,VWS V14.01,2013-11-14 13:41:00,
2013-11-14 08:45:00,38.3,29.7,30.31,SW,224,0.0,6.0,71,0.00,,SKC,0.00,VWS V14.01,2013-11-14 13:45:00,
2013-11-14 08:53:00,39.4,30.4,30.31,South,187,2.0,6.0,70,0.00,,SKC,0.00,VWS V14.01,2013-11-14 13:53:00,
2013-11-14 08:58:00,40.0,30.7,30.31,SW,214,0.0,6.0,69,0.00,,SKC,0.00,VWS V14.01,2013-11-14 13:58:00,
2013-11-14 09:02:00,40.7,31.0,30.31,SW,215,0.0,6.0,68,0.00,,SKC,0.00,VWS V14.01,2013-11-14 14:02:00,
2013-11-14 09:07:00,41.4,30.9,30.31,SW,215,0.0,6.0,66,0.00,,SKC,0.00,VWS V14.01,2013-11-14 14:07:00,
2013-11-14 09:10:00,41.9,31.0,30.31,SSW,209,0.0,1.0,65,0.00,,SKC,0.00,VWS V14.01,2013-11-14 14:10:00,
2013-11-14 09:18:00,43.2,30.7,30.31,SSW,203,0.0,5.0,61,0.00,,SKC,0.00,VWS V14.01,2013-11-14 14:18:00,
2013-11-14 09:22:00,43.8,30.8,30.31,SW,217,0.0,5.0,60,0.00,,SKC,0.00,VWS V14.01,2013-11-14 14:22:00,
2013-11-14 09:26:00,44.2,30.8,30.31,West,263,0.0,5.0,59,0.00,,SKC,0.00,VWS V14.01,2013-11-14 14:26:00,
2013-11-14 09:30:00,44.7,30.9,30.30,South,191,0.0,5.0,58,0.00,,SKC,0.00,VWS V14.01,2013-11-14 14:30:00,
2013-11-14 09:34:00,45.2,30.5,30.30,South,186,0.0,6.0,56,0.00,,SKC,0.00,VWS V14.01,2013-11-14 14:34:00,
2013-11-14 09:37:00,45.6,29.9,30.30,SW,234,0.0,6.0,54,0.00,,SKC,0.00,VWS V14.01,2013-11-14 14:37:00,
2013-11-14 09:38:00,45.8,30.1,30.30,SW,234,0.0,1.0,54,0.00,,SKC,0.00,VWS V14.01,2013-11-14 14:38:00,
2013-11-14 09:42:00,46.3,31.0,30.30,West,265,0.0,4.0,55,0.00,,SKC,0.00,VWS V14.01,2013-11-14 14:42:00,
2013-11-14 09:46:00,46.8,30.1,30.30,West,277,3.0,5.0,52,0.00,,SKC,0.00,VWS V14.01,2013-11-14 14:46:00,
2013-11-14 09:54:00,47.6,29.9,30.30,WNW,286,0.0,5.0,50,0.00,,SKC,0.00,VWS V14.01,2013-11-14 14:54:00,
2013-11-14 09:58:00,47.8,29.1,30.30,South,176,3.0,7.0,48,0.00,,SKC,0.00,VWS V14.01,2013-11-14 14:58:00,
2013-11-14 10:02:00,48.1,28.8,30.30,SW,234,0.0,7.0,47,0.00,,SKC,0.00,VWS V14.01,2013-11-14 15:02:00,
2013-11-14 10:06:00,48.5,29.2,30.30,WNW,288,2.0,7.0,47,0.00,,SKC,0.00,VWS V14.01,2013-11-14 15:06:00,
2013-11-14 10:07:00,48.6,28.2,30.30,WNW,288,0.0,7.0,45,0.00,,SKC,0.00,VWS V14.01,2013-11-14 15:07:00,
2013-11-14 10:10:00,48.8,29.0,30.29,WSW,248,0.0,4.0,46,0.00,,SKC,0.00,VWS V14.01,2013-11-14 15:10:00,
2013-11-14 10:14:00,49.3,29.9,30.29,West,266,0.0,4.0,47,0.00,,SKC,0.00,VWS V14.01,2013-11-14 15:14:00,
2013-11-14 10:18:00,49.9,29.4,30.29,SSE,150,1.0,4.0,45,0.00,,SKC,0.00,VWS V14.01,2013-11-14 15:18:00,
2013-11-14 10:26:00,50.8,28.5,30.29,West,268,0.0,4.0,42,0.00,,SKC,0.00,VWS V14.01,2013-11-14 15:26:00,
2013-11-14 10:30:00,50.8,28.5,30.29,West,264,0.0,4.0,42,0.00,,SKC,0.00,VWS V14.01,2013-11-14 15:30:00,
2013-11-14 10:37:00,51.0,29.3,30.28,WSW,254,0.0,5.0,43,0.00,,SKC,0.00,VWS V14.01,2013-11-14 15:37:00,
2013-11-14 10:42:00,51.4,27.9,30.28,SSW,192,1.0,4.0,40,0.00,,SKC,0.00,VWS V14.01,2013-11-14 15:42:00,
2013-11-14 10:46:00,51.5,27.4,30.28,WSW,246,1.0,6.0,39,0.00,,SKC,0.00,VWS V14.01,2013-11-14 15:46:00,
2013-11-14 10:54:00,51.7,28.2,30.27,SW,231,1.0,6.0,40,0.00,,SKC,0.00,VWS V14.01,2013-11-14 15:54:00,
2013-11-14 10:58:00,51.5,27.4,30.27,WSW,244,1.0,6.0,39,0.00,,SKC,0.00,VWS V14.01,2013-11-14 15:58:00,
2013-11-14 11:02:00,51.5,27.4,30.27,West,277,2.0,6.0,39,0.00,,SKC,0.00,VWS V14.01,2013-11-14 16:02:00,
2013-11-14 11:06:00,51.6,27.5,30.27,West,277,0.0,6.0,39,0.00,,SKC,0.00,VWS V14.01,2013-11-14 16:06:00,
2013-11-14 11:07:00,51.6,26.8,30.27,West,273,3.0,6.0,38,0.00,,SKC,0.00,VWS V14.01,2013-11-14 16:07:00,
2013-11-14 11:14:00,51.7,29.4,30.27,SSW,205,0.0,5.0,42,0.00,,SKC,0.00,VWS V14.01,2013-11-14 16:14:00,
2013-11-14 11:18:00,51.9,28.4,30.26,WSW,251,0.0,5.0,40,0.00,,SKC,0.00,VWS V14.01,2013-11-14 16:18:00,
2013-11-14 11:26:00,52.8,28.5,30.26,West,270,0.0,5.0,39,0.00,,SKC,0.00,VWS V14.01,2013-11-14 16:26:00,
2013-11-14 11:30:00,53.1,27.5,30.26,SW,227,0.0,6.0,37,0.00,,SKC,0.00,VWS V14.01,2013-11-14 16:30:00,
2013-11-14 11:34:00,53.4,28.5,30.26,WSW,255,0.0,6.0,38,0.00,,SKC,0.00,VWS V14.01,2013-11-14 16:34:00,
2013-11-14 11:37:00,53.9,28.2,30.25,SW,228,2.0,6.0,37,0.00,,SKC,0.00,VWS V14.01,2013-11-14 16:37:00,
2013-11-14 11:42:00,54.4,27.3,30.25,SSW,198,1.0,7.0,35,0.00,,SKC,0.00,VWS V14.01,2013-11-14 16:42:00,
2013-11-14 11:46:00,54.6,27.5,30.25,West,265,1.0,7.0,35,0.00,,SKC,0.00,VWS V14.01,2013-11-14 16:46:00,
2013-11-14 11:50:00,55.0,27.9,30.25,SSE,164,1.0,7.0,35,0.00,,SKC,0.00,VWS V14.01,2013-11-14 16:50:00,
2013-11-14 11:54:00,55.2,26.6,30.24,SW,221,0.0,7.0,33,0.00,,SKC,0.00,VWS V14.01,2013-11-14 16:54:00,
2013-11-14 12:02:00,55.6,27.7,30.24,SW,223,0.0,7.0,34,0.00,,SKC,0.00,VWS V14.01,2013-11-14 17:02:00,
2013-11-14 12:06:00,56.0,28.0,30.23,SW,225,2.0,7.0,34,0.00,,SKC,0.00,VWS V14.01,2013-11-14 17:06:00,
2013-11-14 12:07:00,56.1,26.7,30.23,WSW,252,0.0,7.0,32,0.00,,SKC,0.00,VWS V14.01,2013-11-14 17:07:00,
2013-11-14 12:10:00,56.3,26.8,30.23,SW,222,0.0,5.0,32,0.00,,SKC,0.00,VWS V14.01,2013-11-14 17:10:00,
2013-11-14 12:14:00,56.4,27.7,30.23,WSW,257,1.0,5.0,33,0.00,,SKC,0.00,VWS V14.01,2013-11-14 17:14:00,
2013-11-14 12:18:00,56.8,26.5,30.23,SW,221,0.0,6.0,31,0.00,,SKC,0.00,VWS V14.01,2013-11-14 17:18:00,
2013-11-14 12:22:00,57.4,27.0,30.23,West,275,0.0,6.0,31,0.00,,SKC,0.00,VWS V14.01,2013-11-14 17:22:00,
2013-11-14 12:26:00,58.0,26.8,30.22,South,174,0.0,6.0,30,0.00,,SKC,0.00,VWS V14.01,2013-11-14 17:26:00,
2013-11-14 12:34:00,58.7,25.7,30.22,SW,215,2.0,6.0,28,0.00,,SKC,0.00,VWS V14.01,2013-11-14 17:34:00,
2013-11-14 12:37:00,58.7,24.8,30.22,South,182,1.0,6.0,27,0.00,,SKC,0.00,VWS V14.01,2013-11-14 17:37:00,
2013-11-14 12:38:00,58.7,25.7,30.22,South,181,1.0,3.0,28,0.00,,SKC,0.00,VWS V14.01,2013-11-14 17:38:00,
2013-11-14 12:42:00,58.6,23.8,30.22,West,280,0.0,9.0,26,0.00,,SKC,0.00,VWS V14.01,2013-11-14 17:42:00,
2013-11-14 12:46:00,58.9,23.2,30.22,West,280,0.0,9.0,25,0.00,,SKC,0.00,VWS V14.01,2013-11-14 17:46:00,
2013-11-14 12:50:00,59.3,22.5,30.22,West,280,0.0,9.0,24,0.00,,SKC,0.00,VWS V14.01,2013-11-14 17:50:00,
2013-11-14 12:54:00,59.2,22.5,30.22,SW,234,4.0,9.0,24,0.00,,SKC,0.00,VWS V14.01,2013-11-14 17:54:00,
2013-11-14 13:02:00,59.1,20.3,30.21,West,273,1.0,9.0,22,0.00,,SKC,0.00,VWS V14.01,2013-11-14 18:02:00,
2013-11-14 13:06:00,59.1,19.2,30.21,West,274,0.0,9.0,21,0.00,,SKC,0.00,VWS V14.01,2013-11-14 18:06:00,
2013-11-14 13:07:00,59.1,19.2,30.21,WNW,284,0.0,9.0,21,0.00,,SKC,0.00,VWS V14.01,2013-11-14 18:07:00,
2013-11-14 13:10:00,59.0,20.2,30.21,West,268,2.0,3.0,22,0.00,,SKC,0.00,VWS V14.01,2013-11-14 18:10:00,
2013-11-14 13:14:00,58.8,21.1,30.21,WNW,286,0.0,3.0,23,0.00,,SKC,0.00,VWS V14.01,2013-11-14 18:14:00,
2013-11-14 13:18:00,58.8,21.1,30.21,WSW,240,0.0,3.0,23,0.00,,SKC,0.00,VWS V14.01,2013-11-14 18:18:00,
2013-11-14 13:22:00,58.9,21.2,30.21,West,281,0.0,4.0,23,0.00,,SKC,0.00,VWS V14.01,2013-11-14 18:22:00,
2013-11-14 13:26:00,59.0,21.3,30.20,WSW,256,3.0,4.0,23,0.00,,SKC,0.00,VWS V14.01,2013-11-14 18:26:00,
2013-11-14 13:30:00,59.1,19.2,30.20,SW,235,0.0,5.0,21,0.00,,SKC,0.00,VWS V14.01,2013-11-14 18:30:00,
2013-11-14 13:34:00,59.0,21.3,30.20,WNW,282,3.0,5.0,23,0.00,,SKC,0.00,VWS V14.01,2013-11-14 18:34:00,
2013-11-14 13:37:00,59.1,20.3,30.20,WNW,296,1.0,5.0,22,0.00,,SKC,0.00,VWS V14.01,2013-11-14 18:37:00,
2013-11-14 13:42:00,59.3,18.3,30.20,West,276,0.0,7.0,20,0.00,,SKC,0.00,VWS V14.01,2013-11-14 18:42:00,
2013-11-14 13:46:00,59.3,17.1,30.20,WNW,284,0.0,7.0,19,0.00,,SKC,0.00,VWS V14.01,2013-11-14 18:46:00,
2013-11-14 13:50:00,59.4,20.6,30.20,SSW,200,1.0,7.0,22,0.00,,SKC,0.00,VWS V14.01,2013-11-14 18:50:00,
2013-11-14 13:54:00,59.6,19.6,30.19,West,278,4.0,7.0,21,0.00,,SKC,0.00,VWS V14.01,2013-11-14 18:54:00,
2013-11-14 13:58:00,60.1,20.1,30.19,SW,227,0.0,7.0,21,0.00,,SKC,0.00,VWS V14.01,2013-11-14 18:58:00,
2013-11-14 14:02:00,60.7,18.2,30.19,West,277,0.0,7.0,19,0.00,,SKC,0.00,VWS V14.01,2013-11-14 19:02:00,
2013-11-14 14:10:00,61.5,20.1,30.19,West,262,2.0,2.0,20,0.00,,SKC,0.00,VWS V14.01,2013-11-14 19:10:00,
2013-11-14 14:14:00,61.8,19.1,30.19,West,266,0.0,3.0,19,0.00,,SKC,0.00,VWS V14.01,2013-11-14 19:14:00,
2013-11-14 14:18:00,61.7,21.4,30.19,SW,227,1.0,5.0,21,0.00,,SKC,0.00,VWS V14.01,2013-11-14 19:18:00,
2013-11-14 14:22:00,61.3,16.1,30.19,WNW,286,0.0,5.0,17,0.00,,SKC,0.00,VWS V14.01,2013-11-14 19:22:00,
2013-11-14 14:26:00,61.1,20.9,30.19,WNW,286,0.0,5.0,21,0.00,,SKC,0.00,VWS V14.01,2013-11-14 19:26:00,
2013-11-14 14:30:00,61.2,18.6,30.19,WNW,282,0.0,5.0,19,0.00,,SKC,0.00,VWS V14.01,2013-11-14 19:30:00,
2013-11-14 14:34:00,60.9,19.6,30.19,WNW,284,0.0,5.0,20,0.00,,SKC,0.00,VWS V14.01,2013-11-14 19:34:00,
2013-11-14 14:37:00,60.6,19.3,30.19,WSW,242,3.0,5.0,20,0.00,,SKC,0.00,VWS V14.01,2013-11-14 19:37:00,
2013-11-14 14:38:00,60.1,18.9,30.19,West,267,1.0,3.0,20,0.00,,SKC,0.00,VWS V14.01,2013-11-14 19:38:00,
2013-11-14 14:42:00,59.5,18.4,30.19,West,278,1.0,3.0,20,0.00,,SKC,0.00,VWS V14.01,2013-11-14 19:42:00,
2013-11-14 14:46:00,59.1,18.1,30.19,West,273,0.0,3.0,20,0.00,,SKC,0.00,VWS V14.01,2013-11-14 19:46:00,
2013-11-14 14:50:00,58.7,20.0,30.19,West,261,2.0,4.0,22,0.00,,SKC,0.00,VWS V14.01,2013-11-14 19:50:00,
2013-11-14 14:54:00,58.5,18.7,30.19,West,267,0.0,4.0,21,0.00,,SKC,0.00,VWS V14.01,2013-11-14 19:54:00,
2013-11-14 14:59:00,58.3,18.6,30.19,West,276,1.0,6.0,21,0.00,,SKC,0.00,VWS V14.01,2013-11-14 19:59:00,
2013-11-14 15:03:00,58.2,18.5,30.19,WSW,252,1.0,6.0,21,0.00,,SKC,0.00,VWS V14.01,2013-11-14 20:03:00,
2013-11-14 15:07:00,58.0,18.3,30.19,West,272,3.0,6.0,21,0.00,,SKC,0.00,VWS V14.01,2013-11-14 20:07:00,
2013-11-14 15:15:00,57.6,20.1,30.19,West,276,2.0,3.0,23,0.00,,SKC,0.00,VWS V14.01,2013-11-14 20:15:00,
2013-11-14 15:19:00,57.1,17.6,30.19,WSW,258,0.0,6.0,21,0.00,,SKC,0.00,VWS V14.01,2013-11-14 20:19:00,
2013-11-14 15:23:00,56.9,17.4,30.19,West,279,0.0,6.0,21,0.00,,SKC,0.00,VWS V14.01,2013-11-14 20:23:00,
2013-11-14 15:31:00,56.4,19.1,30.19,WSW,241,0.0,6.0,23,0.00,,SKC,0.00,VWS V14.01,2013-11-14 20:31:00,
2013-11-14 15:35:00,56.0,18.8,30.19,SW,232,0.0,6.0,23,0.00,,SKC,0.00,VWS V14.01,2013-11-14 20:35:00,
2013-11-14 15:37:00,55.9,19.6,30.19,SW,232,0.0,6.0,24,0.00,,SKC,0.00,VWS V14.01,2013-11-14 20:37:00,
2013-11-14 15:39:00,55.7,19.5,30.19,SW,232,0.0,0.0,24,0.00,,SKC,0.00,VWS V14.01,2013-11-14 20:39:00,
2013-11-14 15:43:00,55.5,19.3,30.19,SW,232,0.0,1.0,24,0.00,,SKC,0.00,VWS V14.01,2013-11-14 20:43:00,
2013-11-14 15:47:00,55.3,21.9,30.19,SW,232,0.0,1.0,27,0.00,,SKC,0.00,VWS V14.01,2013-11-14 20:47:00,
2013-11-14 15:51:00,55.1,21.7,30.19,SW,232,0.0,1.0,27,0.00,,SKC,0.00,VWS V14.01,2013-11-14 20:51:00,
2013-11-14 15:59:00,54.9,21.6,30.19,WSW,240,0.0,1.0,27,0.00,,SKC,0.00,VWS V14.01,2013-11-14 20:59:00,
2013-11-14 16:03:00,54.8,22.3,30.19,WSW,240,0.0,1.0,28,0.00,,SKC,0.00,VWS V14.01,2013-11-14 21:03:00,
2013-11-14 16:07:00,54.6,23.0,30.19,WSW,240,0.0,1.0,29,0.00,,SKC,0.00,VWS V14.01,2013-11-14 21:07:00,
2013-11-14 16:11:00,54.4,24.4,30.19,WSW,241,0.0,0.0,31,0.00,,SKC,0.00,VWS V14.01,2013-11-14 21:11:00,
2013-11-14 16:19:00,54.0,24.1,30.19,WSW,241,0.0,0.0,31,0.00,,SKC,0.00,VWS V14.01,2013-11-14 21:19:00,
2013-11-14 16:23:00,53.7,25.3,30.19,WSW,241,0.0,0.0,33,0.00,,SKC,0.00,VWS V14.01,2013-11-14 21:23:00,
2013-11-14 16:27:00,53.6,25.9,30.19,WSW,241,0.0,0.0,34,0.00,,SKC,0.00,VWS V14.01,2013-11-14 21:27:00,
2013-11-14 16:31:00,53.3,25.0,30.19,WSW,241,0.0,0.0,33,0.00,,SKC,0.00,VWS V14.01,2013-11-14 21:31:00,
2013-11-14 16:35:00,53.0,25.4,30.20,WSW,241,0.0,0.0,34,0.00,,SKC,0.00,VWS V14.01,2013-11-14 21:35:00,
2013-11-14 16:37:00,52.8,26.6,30.19,WSW,241,0.0,0.0,36,0.00,,SKC,0.00,VWS V14.01,2013-11-14 21:37:00,
2013-11-14 16:43:00,52.0,25.9,30.19,WSW,241,0.0,0.0,36,0.00,,SKC,0.00,VWS V14.01,2013-11-14 21:43:00,
2013-11-14 16:47:00,51.6,26.2,30.20,WSW,241,0.0,0.0,37,0.00,,SKC,0.00,VWS V14.01,2013-11-14 21:47:00,
2013-11-14 16:51:00,51.2,25.2,30.20,WSW,241,0.0,0.0,36,0.00,,SKC,0.00,VWS V14.01,2013-11-14 21:51:00,
2013-11-14 16:55:00,50.7,24.7,30.20,WSW,241,0.0,0.0,36,0.00,,SKC,0.00,VWS V14.01,2013-11-14 21:55:00,
2013-11-14 16:59:00,50.2,23.6,30.20,WSW,241,0.0,0.0,35,0.00,,SKC,0.00,VWS V14.01,2013-11-14 21:59:00,
2013-11-14 17:03:00,49.7,22.5,30.20,WSW,241,0.0,0.0,34,0.00,,SKC,0.00,VWS V14.01,2013-11-14 22:03:00,
2013-11-14 17:07:00,49.4,21.5,30.20,WSW,241,0.0,0.0,33,0.00,,SKC,0.00,VWS V14.01,2013-11-14 22:07:00,
2013-11-14 17:11:00,49.2,21.3,30.20,WSW,239,0.0,1.0,33,0.00,,SKC,0.00,VWS V14.01,2013-11-14 22:11:00,
2013-11-14 17:15:00,49.0,21.9,30.20,WSW,240,0.0,1.0,34,0.00,,SKC,0.00,VWS V14.01,2013-11-14 22:15:00,
2013-11-14 17:23:00,48.7,21.6,30.20,SW,235,0.0,1.0,34,0.00,,SKC,0.00,VWS V14.01,2013-11-14 22:23:00,
2013-11-14 17:27:00,48.8,22.4,30.20,SW,214,0.0,4.0,35,0.00,,SKC,0.00,VWS V14.01,2013-11-14 22:27:00,
2013-11-14 17:35:00,48.8,24.3,30.20,SW,214,0.0,4.0,38,0.00,,SKC,0.00,VWS V14.01,2013-11-14 22:35:00,
2013-11-14 17:37:00,48.7,25.5,30.20,SW,214,0.0,4.0,40,0.00,,SKC,0.00,VWS V14.01,2013-11-14 22:37:00,
2013-11-14 17:43:00,48.5,24.7,30.20,SW,215,0.0,2.0,39,0.00,,SKC,0.00,VWS V14.01,2013-11-14 22:43:00,
2013-11-14 17:47:00,48.3,23.9,30.20,SSW,205,0.0,4.0,38,0.00,,SKC,0.00,VWS V14.01,2013-11-14 22:47:00,
2013-11-14 17:51:00,48.3,24.5,30.20,SW,219,3.0,4.0,39,0.00,,SKC,0.00,VWS V14.01,2013-11-14 22:51:00,
2013-11-14 17:55:00,48.4,24.0,30.21,SSW,196,0.0,4.0,38,0.00,,SKC,0.00,VWS V14.01,2013-11-14 22:55:00,
2013-11-14 18:03:00,48.4,23.3,30.21,SW,223,0.0,4.0,37,0.00,,SKC,0.00,VWS V14.01,2013-11-14 23:03:00,
2013-11-14 18:07:00,48.3,23.9,30.21,SW,222,0.0,5.0,38,0.00,,SKC,0.00,VWS V14.01,2013-11-14 23:07:00,
2013-11-14 18:11:00,48.3,24.5,30.21,SE,145,0.0,5.0,39,0.00,,SKC,0.00,VWS V14.01,2013-11-14 23:11:00,
2013-11-14 18:15:00,48.3,24.5,30.21,SE,146,0.0,5.0,39,0.00,,SKC,0.00,VWS V14.01,2013-11-14 23:15:00,
2013-11-14 18:19:00,48.2,25.0,30.21,SW,217,0.0,5.0,40,0.00,,SKC,0.00,VWS V14.01,2013-11-14 23:19:00,
2013-11-14 18:23:00,48.0,25.4,30.21,SSE,165,0.0,5.0,41,0.00,,SKC,0.00,VWS V14.01,2013-11-14 23:23:00,
2013-11-14 18:31:00,47.6,26.2,30.21,SW,226,0.0,5.0,43,0.00,,SKC,0.00,VWS V14.01,2013-11-14 23:31:00,
2013-11-14 18:35:00,47.4,26.6,30.21,South,190,0.0,5.0,44,0.00,,SKC,0.00,VWS V14.01,2013-11-14 23:35:00,
2013-11-14 18:37:00,47.4,26.6,30.21,SW,215,1.0,5.0,44,0.00,,SKC,0.00,VWS V14.01,2013-11-14 23:37:00,
2013-11-14 18:39:00,47.3,27.0,30.21,SSW,212,0.0,2.0,45,0.00,,SKC,0.00,VWS V14.01,2013-11-14 23:39:00,
2013-11-14 18:47:00,46.9,27.2,30.21,SSW,209,0.0,3.0,46,0.00,,SKC,0.00,VWS V14.01,2013-11-14 23:47:00,
2013-11-14 18:51:00,46.7,27.0,30.21,SSW,209,0.0,3.0,46,0.00,,SKC,0.00,VWS V14.01,2013-11-14 23:51:00,
2013-11-14 18:55:00,46.5,27.4,30.21,SSW,212,0.0,4.0,47,0.00,,SKC,0.00,VWS V14.01,2013-11-14 23:55:00,
2013-11-14 18:59:00,46.3,27.7,30.21,SW,229,1.0,5.0,48,0.00,,SKC,0.00,VWS V14.01,2013-11-14 23:59:00,
2013-11-14 19:03:00,46.2,27.6,30.21,SSW,196,0.0,5.0,48,0.00,,SKC,0.00,VWS V14.01,2013-11-15 00:03:00,
2013-11-14 19:07:00,46.1,28.0,30.21,West,262,0.0,5.0,49,0.00,,SKC,0.00,VWS V14.01,2013-11-15 00:07:00,
2013-11-14 19:11:00,46.0,28.4,30.21,SSW,208,0.0,4.0,50,0.00,,SKC,0.00,VWS V14.01,2013-11-15 00:11:00,
2013-11-14 19:15:00,45.9,28.3,30.21,SW,225,0.0,5.0,50,0.00,,SKC,0.00,VWS V14.01,2013-11-15 00:15:00,
2013-11-14 19:19:00,45.8,28.7,30.21,SSW,209,0.0,5.0,51,0.00,,SKC,0.00,VWS V14.01,2013-11-15 00:19:00,
2013-11-14 19:23:00,45.6,29.0,30.21,SW,216,0.0,5.0,52,0.00,,SKC,0.00,VWS V14.01,2013-11-15 00:23:00,
2013-11-14 19:31:00,45.2,29.1,30.21,SSW,211,0.0,5.0,53,0.00,,SKC,0.00,VWS V14.01,2013-11-15 00:31:00,
2013-11-14 19:35:00,45.1,29.0,30.21,SSW,198,0.0,5.0,53,0.00,,SKC,0.00,VWS V14.01,2013-11-15 00:35:00,
2013-11-14 19:39:00,45.0,29.4,30.21,SSW,201,0.0,2.0,54,0.00,,SKC,0.00,VWS V14.01,2013-11-15 00:39:00,
2013-11-14 19:43:00,45.0,29.4,30.21,SW,229,0.0,5.0,54,0.00,,SKC,0.00,VWS V14.01,2013-11-15 00:43:00,
2013-11-14 19:51:00,45.0,29.8,30.21,SW,223,0.0,5.0,55,0.00,,SKC,0.00,VWS V14.01,2013-11-15 00:51:00,
2013-11-14 19:55:00,45.0,29.8,30.21,SW,223,0.0,5.0,55,0.00,,SKC,0.00,VWS V14.01,2013-11-15 00:55:00,
2013-11-14 19:59:00,44.9,30.2,30.21,SW,221,0.0,5.0,56,0.00,,SKC,0.00,VWS V14.01,2013-11-15 00:59:00,
2013-11-14 20:03:00,44.8,30.1,30.21,SW,219,0.0,5.0,56,0.00,,SKC,0.00,VWS V14.01,2013-11-15 01:03:00,
2013-11-14 20:07:00,44.7,30.9,30.21,SW,220,0.0,5.0,58,0.00,,SKC,0.00,VWS V14.01,2013-11-15 01:07:00,
2013-11-14 20:11:00,44.5,30.2,30.21,SW,219,0.0,1.0,57,0.00,,SKC,0.00,VWS V14.01,2013-11-15 01:11:00,
2013-11-14 20:15:00,44.3,31.3,30.21,SW,219,0.0,1.0,60,0.00,,SKC,0.00,VWS V14.01,2013-11-15 01:15:00,
2013-11-14 20:20:00,44.1,30.7,30.21,SW,219,0.0,3.0,59,0.00,,SKC,0.00,VWS V14.01,2013-11-15 01:20:00,
2013-11-14 20:24:00,43.8,30.4,30.21,SW,219,0.0,3.0,59,0.00,,SKC,0.00,VWS V14.01,2013-11-15 01:24:00,
2013-11-14 20:32:00,43.5,30.5,30.21,SW,221,0.0,3.0,60,0.00,,SKC,0.00,VWS V14.01,2013-11-15 01:32:00,
2013-11-14 20:36:00,43.3,30.4,30.21,SW,221,0.0,3.0,60,0.00,,SKC,0.00,VWS V14.01,2013-11-15 01:36:00,
2013-11-14 20:37:00,43.3,30.8,30.21,SW,221,0.0,3.0,61,0.00,,SKC,0.00,VWS V14.01,2013-11-15 01:37:00,
2013-11-14 20:44:00,42.9,30.8,30.21,SW,221,0.0,1.0,62,0.00,,SKC,0.00,VWS V14.01,2013-11-15 01:44:00,
2013-11-14 20:48:00,42.7,31.0,30.21,SW,221,0.0,1.0,63,0.00,,SKC,0.00,VWS V14.01,2013-11-15 01:48:00,
2013-11-14 20:52:00,42.5,31.2,30.21,SW,221,0.0,1.0,64,0.00,,SKC,0.00,VWS V14.01,2013-11-15 01:52:00,
2013-11-14 20:56:00,42.4,31.1,30.21,SW,221,0.0,1.0,64,0.00,,SKC,0.00,VWS V14.01,2013-11-15 01:56:00,
2013-11-14 21:00:00,42.1,31.2,30.21,SW,221,0.0,1.0,65,0.00,,SKC,0.00,VWS V14.01,2013-11-15 02:00:00,
2013-11-14 21:04:00,41.7,30.8,30.21,SW,221,0.0,1.0,65,0.00,,SKC,0.00,VWS V14.01,2013-11-15 02:04:00,
2013-11-14 21:08:00,41.5,30.2,30.21,WSW,238,0.0,0.0,64,0.00,,SKC,0.00,VWS V14.01,2013-11-15 02:08:00,
2013-11-14 21:12:00,41.4,30.5,30.20,WSW,238,0.0,0.0,65,0.00,,SKC,0.00,VWS V14.01,2013-11-15 02:12:00,
2013-11-14 21:20:00,41.3,31.2,30.20,WSW,238,0.0,1.0,67,0.00,,SKC,0.00,VWS V14.01,2013-11-15 02:20:00,
2013-11-14 21:24:00,41.3,30.8,30.20,WSW,238,0.0,1.0,66,0.00,,SKC,0.00,VWS V14.01,2013-11-15 02:24:00,
2013-11-14 21:28:00,41.2,30.7,30.20,SW,224,0.0,2.0,66,0.00,,SKC,0.00,VWS V14.01,2013-11-15 02:28:00,
2013-11-14 21:32:00,41.1,31.0,30.20,SW,224,0.0,2.0,67,0.00,,SKC,0.00,VWS V14.01,2013-11-15 02:32:00,
2013-11-14 21:36:00,41.0,32.3,30.21,SW,224,0.0,2.0,71,0.00,,SKC,0.00,VWS V14.01,2013-11-15 02:36:00,
2013-11-14 21:40:00,40.9,30.8,30.21,SW,224,0.0,0.0,67,0.00,,SKC,0.00,VWS V14.01,2013-11-15 02:40:00,
2013-11-14 21:44:00,40.7,31.0,30.20,SW,224,0.0,0.0,68,0.00,,SKC,0.00,VWS V14.01,2013-11-15 02:44:00,
2013-11-14 21:48:00,40.5,31.1,30.20,SW,224,0.0,0.0,69,0.00,,SKC,0.00,VWS V14.01,2013-11-15 02:48:00,
2013-11-14 21:52:00,40.4,31.4,30.20,SW,224,0.0,0.0,70,0.00,,SKC,0.00,VWS V14.01,2013-11-15 02:52:00,
2013-11-14 21:56:00,40.2,31.2,30.20,SW,224,0.0,0.0,70,0.00,,SKC,0.00,VWS V14.01,2013-11-15 02:56:00,
2013-11-14 22:00:00,40.0,31.4,30.20,SW,224,0.0,0.0,71,0.00,,SKC,0.00,VWS V14.01,2013-11-15 03:00:00,
2013-11-14 22:04:00,39.8,31.2,30.20,SW,224,0.0,0.0,71,0.00,,SKC,0.00,VWS V14.01,2013-11-15 03:04:00,
2013-11-14 22:07:00,39.7,31.4,30.20,SW,224,0.0,0.0,72,0.00,,SKC,0.00,VWS V14.01,2013-11-15 03:07:00,
2013-11-14 22:08:00,39.7,31.4,30.20,SW,224,0.0,0.0,72,0.00,,SKC,0.00,VWS V14.01,2013-11-15 03:08:00,
2013-11-14 22:12:00,39.6,31.3,30.20,SW,224,0.0,0.0,72,0.00,,SKC,0.00,VWS V14.01,2013-11-15 03:12:00,
2013-11-14 22:20:00,39.6,31.7,30.20,SW,224,0.0,0.0,73,0.00,,SKC,0.00,VWS V14.01,2013-11-15 03:20:00,
2013-11-14 22:24:00,39.6,31.7,30.20,SW,224,0.0,0.0,73,0.00,,SKC,0.00,VWS V14.01,2013-11-15 03:24:00,
2013-11-14 22:28:00,39.5,31.6,30.20,SW,224,0.0,0.0,73,0.00,,SKC,0.00,VWS V14.01,2013-11-15 03:28:00,
2013-11-14 22:36:00,39.3,31.7,30.20,SW,224,0.0,0.0,74,0.00,,SKC,0.00,VWS V14.01,2013-11-15 03:36:00,
2013-11-14 22:37:00,39.3,31.7,30.20,SW,224,0.0,0.0,74,0.00,,SKC,0.00,VWS V14.01,2013-11-15 03:37:00,
2013-11-14 22:44:00,39.1,31.9,30.20,SW,224,0.0,0.0,75,0.00,,SKC,0.00,VWS V14.01,2013-11-15 03:44:00,
2013-11-14 22:48:00,38.9,32.0,30.20,SW,224,0.0,0.0,76,0.00,,SKC,0.00,VWS V14.01,2013-11-15 03:48:00,
2013-11-14 22:56:00,38.6,32.0,30.19,SW,224,0.0,0.0,77,0.00,,SKC,0.00,VWS V14.01,2013-11-15 03:56:00,
2013-11-14 23:04:00,38.4,32.5,30.19,SW,223,0.0,1.0,79,0.00,,SKC,0.00,VWS V14.01,2013-11-15 04:04:00,
2013-11-14 23:08:00,38.3,32.4,30.19,SW,223,0.0,0.0,79,0.00,,SKC,0.00,VWS V14.01,2013-11-15 04:08:00,
2013-11-14 23:12:00,38.3,32.4,30.19,SW,223,0.0,0.0,79,0.00,,SKC,0.00,VWS V14.01,2013-11-15 04:12:00,
2013-11-14 23:16:00,38.2,32.6,30.19,SW,223,0.0,0.0,80,0.00,,SKC,0.00,VWS V14.01,2013-11-15 04:16:00,
2013-11-14 23:20:00,38.4,33.1,30.19,SW,223,0.0,2.0,81,0.00,,SKC,0.00,VWS V14.01,2013-11-15 04:20:00,
2013-11-14 23:28:00,39.0,33.4,30.19,SW,223,0.0,2.0,80,0.00,,SKC,0.00,VWS V14.01,2013-11-15 04:28:00,
2013-11-14 23:32:00,39.1,33.5,30.19,SW,223,0.0,2.0,80,0.00,,SKC,0.00,VWS V14.01,2013-11-15 04:32:00,
2013-11-14 23:36:00,39.1,33.5,30.19,SW,219,0.0,3.0,80,0.00,,SKC,0.00,VWS V14.01,2013-11-15 04:36:00,
2013-11-14 23:37:00,39.1,33.5,30.19,SW,219,0.0,3.0,80,0.00,,SKC,0.00,VWS V14.01,2013-11-15 04:37:00,
2013-11-14 23:44:00,39.3,33.7,30.19,SSW,208,0.0,3.0,80,0.00,,SKC,0.00,VWS V14.01,2013-11-15 04:44:00,
2013-11-14 23:48:00,39.6,33.6,30.19,SSW,213,0.0,4.0,79,0.00,,SKC,0.00,VWS V14.01,2013-11-15 04:48:00,
2013-11-14 23:52:00,39.8,33.8,30.19,SSW,213,0.0,4.0,79,0.00,,SKC,0.00,VWS V14.01,2013-11-15 04:52:00,
2013-11-14 23:56:00,40.0,33.7,30.19,SW,216,0.0,4.0,78,0.00,,SKC,0.00,VWS V14.01,2013-11-15 04:56:00,